Time;durP1;ratioP1;P1;durP2;ratioP2;P2;SDS_P1;SDS_P2;PMS_P1;PMS_P2;Temp;Humidity;BMP_temperature;BMP_pressure;BME280_temperature;BME280_humidity;BME280_pressure;Samples;Min_cycle;Max_cycle;Signal;HPM_P1;HPM_P2
2020/12/19 00:00:05;;;;;;;114.65;70.50;;;;;;;5.38;67.78;94861.41;4990074;28;20055;-78
2020/12/19 00:02:31;;;;;;;139.05;74.95;;;;;;;5.41;67.77;94866.22;4987339;28;20058;-77
2020/12/19 00:04:56;;;;;;;118.45;68.18;;;;;;;5.45;67.33;94864.72;4991864;28;20018;-78
2020/12/19 00:07:22;;;;;;;139.63;76.25;;;;;;;5.42;67.37;94867.81;4988958;28;20042;-78
2020/12/19 00:09:47;;;;;;;182.90;84.85;;;;;;;5.47;68.10;94867.13;4986164;28;20042;-78
2020/12/19 00:12:12;;;;;;;382.85;113.13;;;;;;;5.39;69.15;94870.88;4988785;28;20790;-78
2020/12/19 00:14:38;;;;;;;347.40;115.35;;;;;;;5.38;70.35;94860.59;4983041;28;20053;-78
2020/12/19 00:17:03;;;;;;;359.83;117.10;;;;;;;5.43;70.84;94882.50;4979893;28;20034;-78
2020/12/19 00:19:29;;;;;;;315.52;114.38;;;;;;;5.44;70.93;94870.97;4987547;28;20069;-78
2020/12/19 00:21:54;;;;;;;328.83;113.95;;;;;;;5.35;70.65;94861.09;4985284;28;20053;-78
2020/12/19 00:24:20;;;;;;;319.63;110.43;;;;;;;5.39;70.71;94878.75;4987646;28;20054;-78
2020/12/19 00:26:45;;;;;;;223.88;107.70;;;;;;;5.42;71.18;94877.50;4986856;28;20042;-78
2020/12/19 00:29:12;;;;;;;204.40;102.20;;;;;;;5.46;70.69;94876.81;4985099;28;20023;-78
2020/12/19 00:31:38;;;;;;;194.57;99.88;;;;;;;5.45;69.95;94880.44;4988990;28;20109;-78
2020/12/19 00:34:05;;;;;;;160.45;95.60;;;;;;;5.46;68.98;94868.94;4984209;28;20034;-78
2020/12/19 00:36:31;;;;;;;126.95;86.28;;;;;;;5.41;68.80;94865.41;4986544;28;20054;-77
2020/12/19 00:38:56;;;;;;;165.13;87.97;;;;;;;5.38;68.65;94865.84;4986750;28;20502;-78
2020/12/19 00:41:24;;;;;;;311.83;116.35;;;;;;;5.54;68.66;94883.50;4985054;28;20018;-78
2020/12/19 00:43:50;;;;;;;417.52;139.50;;;;;;;5.56;69.17;94890.13;4989096;28;20030;-77
2020/12/19 00:46:17;;;;;;;463.85;146.02;;;;;;;5.52;69.74;94878.47;4985448;28;20053;-78
2020/12/19 00:48:43;;;;;;;295.85;106.50;;;;;;;5.45;70.19;94859.47;4983204;28;20145;-78
2020/12/19 00:51:27;;;;;;;295.05;109.28;;;;;;;5.60;70.01;94875.53;4987859;28;20146;-77
2020/12/19 00:53:52;;;;;;;219.43;102.30;;;;;;;5.53;69.59;94869.59;4986030;28;20050;-78
2020/12/19 00:56:19;;;;;;;160.55;94.25;;;;;;;5.56;69.13;94879.63;4983945;28;20080;-78
2020/12/19 00:58:45;;;;;;;169.90;96.85;;;;;;;5.62;68.68;94877.91;4988134;28;20057;-78
2020/12/19 01:01:12;;;;;;;213.02;96.65;;;;;;;5.57;69.02;94865.47;4985827;28;20054;-77
2020/12/19 01:03:37;;;;;;;237.38;105.72;;;;;;;5.61;69.58;94861.38;4986630;28;20034;-78
2020/12/19 01:06:03;;;;;;;367.45;129.95;;;;;;;5.60;69.61;94867.66;4986854;28;20411;-77
2020/12/19 01:08:29;;;;;;;292.52;115.85;;;;;;;5.60;69.80;94864.25;4984117;28;20391;-78
2020/12/19 01:10:54;;;;;;;244.93;105.10;;;;;;;5.68;70.33;94867.28;4989488;28;20026;-78
2020/12/19 01:13:20;;;;;;;236.38;105.82;;;;;;;5.67;70.64;94855.19;4968854;28;20054;-77
2020/12/19 01:15:45;;;;;;;312.52;100.53;;;;;;;5.64;70.92;94829.44;4964267;28;20503;-78
2020/12/19 01:18:11;;;;;;;252.48;95.63;;;;;;;5.64;71.46;94832.06;4977341;28;20038;-77
2020/12/19 01:20:36;;;;;;;307.02;95.00;;;;;;;5.81;72.11;94860.19;4985366;28;20038;-77
2020/12/19 01:23:02;;;;;;;398.95;99.03;;;;;;;5.81;72.88;94857.56;4986435;28;20045;-77
2020/12/19 01:25:27;;;;;;;319.88;96.10;;;;;;;5.74;73.47;94849.84;4968167;28;20522;-78
2020/12/19 01:27:54;;;;;;;357.75;94.25;;;;;;;5.73;73.83;94847.44;4980896;28;20070;-78
2020/12/19 01:30:19;;;;;;;346.48;97.88;;;;;;;5.78;74.64;94848.34;4986077;28;20089;-78
2020/12/19 01:32:45;;;;;;;337.02;99.32;;;;;;;5.79;74.70;94847.31;4984373;28;20427;-78
2020/12/19 01:35:10;;;;;;;334.92;97.00;;;;;;;5.81;74.76;94850.50;4986531;28;20074;-77
2020/12/19 01:37:35;;;;;;;280.63;93.03;;;;;;;5.75;74.53;94837.50;4967990;28;20785;-77
2020/12/19 01:40:01;;;;;;;273.08;89.53;;;;;;;5.70;74.31;94829.56;4965460;28;20114;-77
2020/12/19 01:42:26;;;;;;;301.20;86.85;;;;;;;5.83;73.78;94852.88;4970350;28;20074;-77
2020/12/19 01:44:52;;;;;;;331.70;91.80;;;;;;;5.82;73.78;94851.28;4971480;28;20050;-78
2020/12/19 01:47:21;;;;;;;374.38;90.35;;;;;;;5.81;73.97;94841.84;4984446;28;20458;-78
2020/12/19 01:49:46;;;;;;;311.05;89.15;;;;;;;5.80;73.85;94850.72;4987695;28;20034;-78
2020/12/19 01:52:13;;;;;;;339.20;90.45;;;;;;;5.80;73.97;94848.09;4984176;28;20489;-78
2020/12/19 01:54:39;;;;;;;339.52;95.25;;;;;;;5.82;74.64;94852.06;4984795;28;20039;-78
2020/12/19 01:57:04;;;;;;;328.60;92.55;;;;;;;5.81;75.06;94852.34;4985592;28;20054;-77
2020/12/19 01:59:32;;;;;;;343.08;91.60;;;;;;;5.71;74.86;94828.53;4984890;28;20046;-78
2020/12/19 02:02:05;;;;;;;301.13;87.78;;;;;;;5.77;74.86;94851.97;4987855;28;20030;-78
2020/12/19 02:04:31;;;;;;;307.05;88.63;;;;;;;5.84;74.96;94854.47;4987501;28;20242;-78
2020/12/19 02:06:58;;;;;;;258.25;86.95;;;;;;;5.74;74.55;94849.03;4983924;28;20133;-77
2020/12/19 02:09:27;;;;;;;273.88;90.57;;;;;;;5.68;74.13;94856.00;4984216;28;20113;-78
2020/12/19 02:11:53;;;;;;;290.55;92.32;;;;;;;5.75;73.84;94855.88;4984689;28;20042;-78
2020/12/19 02:14:19;;;;;;;270.05;87.60;;;;;;;5.66;73.31;94842.34;4985944;28;20032;-78
2020/12/19 02:17:23;;;;;;;224.18;79.88;;;;;;;5.80;72.78;94854.16;4986521;28;20108;-78
2020/12/19 02:19:48;;;;;;;206.88;77.55;;;;;;;5.79;72.30;94859.63;4961609;28;20042;-78
2020/12/19 02:22:14;;;;;;;206.60;80.10;;;;;;;5.73;71.94;94847.44;4959652;28;20047;-78
2020/12/19 02:24:39;;;;;;;244.10;83.38;;;;;;;5.70;72.05;94847.91;4971320;28;20062;-78
2020/12/19 02:27:05;;;;;;;226.30;81.18;;;;;;;5.70;71.88;94840.03;4985002;28;20057;-78
2020/12/19 02:29:32;;;;;;;216.38;83.82;;;;;;;5.82;72.11;94846.81;4982097;28;20115;-78
2020/12/19 02:32:00;;;;;;;190.98;79.47;;;;;;;5.84;72.09;94847.41;4968046;28;20034;-78
2020/12/19 02:34:26;;;;;;;211.50;76.70;;;;;;;5.80;72.13;94837.63;4983525;28;20026;-78
2020/12/19 02:36:52;;;;;;;291.52;88.22;;;;;;;5.89;72.01;94839.66;4970242;28;20041;-78
2020/12/19 02:39:17;;;;;;;337.00;91.75;;;;;;;5.77;72.50;94827.56;4975467;28;20042;-78
2020/12/19 02:41:45;;;;;;;227.95;85.20;;;;;;;5.94;72.83;94842.38;4984281;28;20034;-79
2020/12/19 02:44:13;;;;;;;211.82;85.13;;;;;;;5.88;72.90;94834.63;4983795;28;20034;-79
2020/12/19 02:46:39;;;;;;;247.57;79.90;;;;;;;5.99;72.53;94841.69;4987190;28;20038;-78
2020/12/19 02:49:05;;;;;;;227.45;83.03;;;;;;;5.99;72.21;94836.44;4984512;28;20045;-78
2020/12/19 02:51:31;;;;;;;202.07;81.03;;;;;;;6.01;71.90;94829.13;4986812;28;20116;-78
2020/12/19 02:53:56;;;;;;;221.02;81.78;;;;;;;6.03;71.72;94834.94;4977337;28;20055;-78
2020/12/19 02:56:21;;;;;;;230.65;84.25;;;;;;;6.04;71.59;94826.03;4965575;28;20388;-78
2020/12/19 02:58:47;;;;;;;253.98;83.32;;;;;;;6.07;71.79;94826.34;4987727;28;20046;-79
2020/12/19 03:01:13;;;;;;;218.85;82.75;;;;;;;6.06;71.98;94821.31;4983043;28;20495;-78
2020/12/19 03:03:38;;;;;;;242.30;83.47;;;;;;;6.12;72.24;94843.22;4973320;28;20088;-79
2020/12/19 03:06:05;;;;;;;250.30;82.32;;;;;;;6.15;72.10;94838.31;4974516;28;20471;-78
2020/12/19 03:08:31;;;;;;;247.07;82.78;;;;;;;6.18;72.04;94837.81;4981238;28;20026;-77
2020/12/19 03:14:55;;;;;;;252.75;80.32;;;;;;;6.23;72.68;94845.78;4875018;29;20041;-79
2020/12/19 03:17:21;;;;;;;;;;;;;;;6.25;72.35;94843.75;4888298;29;20039;-78
2020/12/19 03:19:46;;;;;;;149.63;72.15;;;;;;;6.09;72.09;94826.13;4951478;28;19910;-79
2020/12/19 03:22:12;;;;;;;148.52;73.00;;;;;;;6.09;71.56;94834.78;4993027;28;20049;-79
2020/12/19 03:24:37;;;;;;;125.90;70.18;;;;;;;6.18;71.03;94835.22;4974214;28;20053;-79
2020/12/19 03:27:03;;;;;;;120.03;69.28;;;;;;;6.00;70.24;94803.91;4983502;28;20038;-79
2020/12/19 03:29:28;;;;;;;132.55;69.32;;;;;;;6.18;69.79;94829.16;4983775;28;20458;-79
2020/12/19 03:31:54;;;;;;;128.32;69.97;;;;;;;6.21;69.66;94837.34;4986253;28;20034;-79
2020/12/19 03:34:19;;;;;;;151.07;70.40;;;;;;;6.14;69.81;94826.22;4983227;28;20027;-79
2020/12/19 03:36:44;;;;;;;146.23;73.00;;;;;;;6.23;69.76;94832.66;4982991;28;20116;-79
2020/12/19 03:39:10;;;;;;;145.73;73.25;;;;;;;6.23;69.78;94827.41;4982145;28;20614;-79
2020/12/19 03:41:36;;;;;;;137.55;71.53;;;;;;;6.30;70.06;94835.97;4983236;28;20097;-79
2020/12/19 03:44:01;;;;;;;154.73;74.25;;;;;;;6.23;70.19;94827.41;4985180;28;20390;-79
2020/12/19 03:46:26;;;;;;;215.77;79.53;;;;;;;6.31;70.69;94834.91;4983699;28;20035;-79
2020/12/19 03:48:52;;;;;;;203.38;83.03;;;;;;;6.29;71.34;94836.19;4983524;28;20057;-79
2020/12/19 03:51:17;;;;;;;216.30;83.68;;;;;;;6.25;72.02;94825.38;4981472;28;20049;-79
2020/12/19 03:53:43;;;;;;;180.73;80.72;;;;;;;6.29;72.40;94842.25;4980387;28;20495;-79
2020/12/19 03:56:08;;;;;;;186.45;81.05;;;;;;;6.24;72.08;94833.47;5000067;28;20033;-79
2020/12/19 03:58:34;;;;;;;199.50;82.50;;;;;;;6.35;71.70;94845.75;4998457;28;20053;-79
2020/12/19 04:00:59;;;;;;;235.15;83.28;;;;;;;6.33;72.12;94845.19;4982356;28;20038;-79
2020/12/19 04:03:24;;;;;;;208.85;85.13;;;;;;;6.35;72.40;94851.78;4983042;28;20054;-79
2020/12/19 04:05:50;;;;;;;272.42;89.53;;;;;;;6.32;72.52;94844.38;4983207;28;20038;-79
2020/12/19 04:08:15;;;;;;;254.88;92.57;;;;;;;6.36;73.27;94853.38;4995920;28;20030;-79
2020/12/19 04:10:41;;;;;;;265.10;92.10;;;;;;;6.36;73.85;94853.38;4985355;28;20101;-79
2020/12/19 04:13:06;;;;;;;229.90;90.07;;;;;;;6.27;74.36;94844.28;4982219;28;20038;-79
2020/12/19 04:15:32;;;;;;;236.57;84.55;;;;;;;6.33;74.13;94851.22;4982604;28;20495;-79
2020/12/19 04:17:57;;;;;;;239.93;84.13;;;;;;;6.31;74.22;94855.91;4982370;28;20057;-79
2020/12/19 04:20:23;;;;;;;306.05;89.28;;;;;;;6.21;74.40;94845.22;4982624;28;20021;-79
2020/12/19 04:22:49;;;;;;;295.65;86.47;;;;;;;6.25;74.46;94856.88;5001096;28;20080;-79
2020/12/19 04:25:14;;;;;;;205.43;83.03;;;;;;;6.22;74.38;94854.69;4983106;28;20049;-79
2020/12/19 04:27:41;;;;;;;252.32;83.40;;;;;;;6.26;74.07;94845.31;4982379;28;20046;-79
2020/12/19 04:30:08;;;;;;;267.52;86.70;;;;;;;6.33;74.17;94853.06;4983002;28;20030;-79
2020/12/19 04:32:34;;;;;;;306.92;83.03;;;;;;;6.33;73.79;94859.09;4982759;28;20089;-79
2020/12/19 04:35:01;;;;;;;190.25;72.88;;;;;;;6.20;73.68;94838.41;4985241;28;20122;-79
2020/12/19 04:37:26;;;;;;;233.82;76.15;;;;;;;6.14;73.55;94849.84;4980427;28;20057;-79
2020/12/19 04:39:54;;;;;;;205.80;78.63;;;;;;;6.22;73.83;94867.03;4994136;28;20438;-79
2020/12/19 04:42:21;;;;;;;210.10;78.97;;;;;;;6.20;73.88;94861.22;4978221;28;20058;-79
2020/12/19 04:44:47;;;;;;;224.10;86.00;;;;;;;6.19;73.56;94863.06;4971692;28;20050;-79
2020/12/19 04:47:13;;;;;;;218.00;78.88;;;;;;;6.23;73.24;94852.88;4986199;28;20077;-79
2020/12/19 04:49:42;;;;;;;198.13;77.55;;;;;;;6.25;72.76;94859.50;5005322;28;20105;-79
2020/12/19 04:52:07;;;;;;;196.13;75.72;;;;;;;6.27;72.70;94849.53;4985837;28;20057;-79
2020/12/19 04:54:33;;;;;;;211.57;75.75;;;;;;;6.21;72.47;94839.97;4986452;28;20039;-79
2020/12/19 04:57:00;;;;;;;176.25;71.68;;;;;;;6.35;72.33;94851.78;4986172;28;20507;-79
2020/12/19 04:59:26;;;;;;;176.63;69.28;;;;;;;6.36;72.04;94853.38;4987323;28;20174;-79
2020/12/19 05:01:51;;;;;;;176.60;69.22;;;;;;;6.19;71.80;94828.94;4989238;28;20121;-79
2020/12/19 05:04:18;;;;;;;150.07;68.00;;;;;;;6.22;71.31;94836.31;4987587;28;20023;-79
2020/12/19 05:06:45;;;;;;;172.25;69.32;;;;;;;6.37;71.19;94864.66;4986298;28;20164;-79
2020/12/19 05:09:11;;;;;;;195.77;74.40;;;;;;;6.35;71.14;94866.75;4977460;28;20183;-79
2020/12/19 05:11:36;;;;;;;212.82;69.60;;;;;;;6.33;71.47;94874.06;4969603;28;20042;-79
2020/12/19 05:14:06;;;;;;;178.98;75.32;;;;;;;6.28;71.63;94866.88;4988629;28;20033;-79
2020/12/19 05:16:33;;;;;;;216.43;73.43;;;;;;;6.32;71.37;94873.25;4967877;28;20046;-79
2020/12/19 05:19:07;;;;;;;167.70;67.78;;;;;;;6.30;71.20;94874.53;4979113;28;20495;-79
2020/12/19 05:21:43;;;;;;;195.20;74.38;;;;;;;6.30;71.05;94869.28;4987108;28;20042;-79
2020/12/19 05:24:11;;;;;;;207.90;68.68;;;;;;;6.29;71.01;94876.38;4984966;28;20058;-80
2020/12/19 05:26:37;;;;;;;185.05;67.97;;;;;;;6.24;70.97;94862.34;4986400;28;20031;-80
2020/12/19 05:29:03;;;;;;;193.35;67.68;;;;;;;6.38;70.53;94882.81;4989783;28;20509;-80
2020/12/19 05:31:33;;;;;;;199.23;65.95;;;;;;;6.42;70.35;94875.25;4968339;28;20078;-80
2020/12/19 05:33:58;;;;;;;152.52;62.75;;;;;;;6.39;70.30;94870.50;4980054;28;20054;-80
2020/12/19 05:36:28;;;;;;;137.63;62.10;;;;;;;6.38;70.13;94867.06;4987999;28;20077;-80
2020/12/19 05:38:58;;;;;;;139.60;63.22;;;;;;;6.40;69.88;94870.22;4984114;28;20043;-80
2020/12/19 05:41:24;;;;;;;142.43;62.83;;;;;;;6.46;69.66;94871.13;4984186;28;20072;-79
2020/12/19 05:43:50;;;;;;;141.15;59.03;;;;;;;6.42;69.50;94875.25;4988485;28;20535;-80
2020/12/19 05:46:33;;;;;;;128.93;56.38;;;;;;;6.34;69.67;94881.72;4986368;28;20042;-80
2020/12/19 05:49:00;;;;;;;131.95;57.33;;;;;;;6.33;69.80;94874.06;4983818;28;20114;-80
2020/12/19 05:51:28;;;;;;;186.20;64.38;;;;;;;6.37;70.03;94883.03;4983997;28;20068;-80
2020/12/19 05:54:01;;;;;;;134.63;58.60;;;;;;;6.42;69.68;94889.19;4984339;28;20434;-80
2020/12/19 05:56:27;;;;;;;124.25;57.35;;;;;;;6.34;69.64;94880.91;4985711;28;20026;-80
2020/12/19 05:58:54;;;;;;;133.60;55.63;;;;;;;6.47;69.51;94896.34;4987685;28;20046;-79
2020/12/19 06:01:21;;;;;;;128.68;59.28;;;;;;;6.35;69.36;94872.78;4984722;28;20522;-80
2020/12/19 06:03:50;;;;;;;115.10;54.83;;;;;;;6.52;69.42;94889.38;4983844;28;20549;-80
2020/12/19 06:06:17;;;;;;;130.35;54.90;;;;;;;6.40;69.05;94870.22;4986994;28;20169;-80
2020/12/19 06:08:42;;;;;;;134.15;58.20;;;;;;;6.39;69.13;94887.03;4982601;28;20046;-79
2020/12/19 06:11:15;;;;;;;132.07;60.53;;;;;;;6.44;69.04;94896.84;4987521;28;20026;-80
2020/12/19 06:13:49;;;;;;;143.43;60.13;;;;;;;6.50;69.06;94906.38;4986452;28;20566;-80
2020/12/19 06:16:16;;;;;;;126.75;58.70;;;;;;;6.42;69.55;94899.69;4983059;28;20042;-80
2020/12/19 06:18:48;;;;;;;154.15;59.53;;;;;;;6.38;69.75;94901.19;4983152;28;20074;-80
2020/12/19 06:21:14;;;;;;;156.25;61.13;;;;;;;6.30;70.56;94898.97;4984776;28;20053;-80
2020/12/19 06:23:41;;;;;;;160.52;62.75;;;;;;;6.32;70.32;94907.38;4983875;28;20046;-80
2020/12/19 06:26:08;;;;;;;141.25;60.08;;;;;;;6.34;70.21;94910.59;4987337;28;20038;-80
2020/12/19 06:28:40;;;;;;;148.55;58.90;;;;;;;6.39;69.92;94907.25;4985161;28;20125;-78
2020/12/19 06:31:21;;;;;;;162.70;59.63;;;;;;;6.37;69.73;94907.47;4985564;28;20042;-78
2020/12/19 06:33:49;;;;;;;154.80;61.28;;;;;;;6.41;69.82;94918.28;4995688;28;20117;-80
2020/12/19 06:36:19;;;;;;;138.23;61.28;;;;;;;6.45;69.79;94917.59;4975339;28;20053;-80
2020/12/19 06:38:50;;;;;;;128.43;58.08;;;;;;;6.45;69.49;94914.19;4984389;28;20113;-80
2020/12/19 06:41:44;;;;;;;130.63;60.13;;;;;;;6.56;69.56;94921.19;4984683;28;20503;-80
2020/12/19 06:44:14;;;;;;;128.95;56.05;;;;;;;6.57;69.14;94922.00;4987245;28;20105;-80
2020/12/19 06:46:39;;;;;;;272.67;68.05;;;;;;;6.47;68.92;94906.88;4985365;28;20042;-80
2020/12/19 06:49:37;;;;;;;130.52;55.47;;;;;;;6.53;68.88;94911.97;4984119;28;20061;-80
2020/12/19 06:52:13;;;;;;;128.05;57.03;;;;;;;6.56;68.91;94915.16;4980795;28;20137;-80
2020/12/19 06:54:48;;;;;;;119.78;58.83;;;;;;;6.55;68.91;94922.22;4997219;28;20070;-80
2020/12/19 06:57:25;;;;;;;100.57;50.20;;;;;;;6.45;68.96;94911.56;4982406;28;20043;-79
2020/12/19 06:59:52;;;;;;;107.05;53.65;;;;;;;6.46;68.58;94910.50;4970505;28;20062;-80
2020/12/19 07:02:21;;;;;;;93.38;47.97;;;;;;;6.53;68.69;94919.06;4998804;28;20121;-80
2020/12/19 07:04:48;;;;;;;111.80;52.15;;;;;;;6.55;68.32;94909.09;4987021;28;20026;-80
2020/12/19 07:07:27;;;;;;;97.28;50.20;;;;;;;6.48;68.45;94906.63;4984178;28;20042;-78
2020/12/19 07:10:03;;;;;;;99.22;51.78;;;;;;;6.62;68.49;94925.53;4996513;28;20038;-79
2020/12/19 07:12:51;;;;;;;104.18;55.67;;;;;;;6.63;68.76;94926.31;4974081;28;20042;-79
2020/12/19 07:15:45;;;;;;;103.85;52.08;;;;;;;6.70;68.51;94932.22;4974561;28;20137;-79
2020/12/19 07:18:30;;;;;;;98.93;50.90;;;;;;;6.77;68.09;94922.34;4984630;28;20506;-79
2020/12/19 07:21:03;;;;;;;95.78;51.03;;;;;;;6.75;67.70;94922.59;4978986;28;20054;-79
2020/12/19 07:23:29;;;;;;;94.70;50.05;;;;;;;6.82;67.55;94933.75;4963747;28;20460;-79
2020/12/19 07:25:55;;;;;;;96.97;50.72;;;;;;;6.83;67.40;94924.84;4985482;28;20026;-79
2020/12/19 07:28:21;;;;;;;98.75;49.95;;;;;;;6.90;67.16;94932.56;4983085;28;20406;-79
2020/12/19 07:30:46;;;;;;;102.35;50.97;;;;;;;6.92;66.92;94925.25;4983457;28;20097;-79
2020/12/19 07:33:12;;;;;;;104.30;52.55;;;;;;;6.91;67.14;94918.38;4983295;28;20490;-80
2020/12/19 07:35:38;;;;;;;97.53;52.28;;;;;;;7.02;67.04;94925.41;4983541;28;20041;-79
2020/12/19 07:38:04;;;;;;;93.55;52.78;;;;;;;6.93;67.26;94917.13;4987565;28;20061;-79
2020/12/19 07:40:30;;;;;;;106.95;54.42;;;;;;;6.96;67.03;94927.16;4983596;28;20511;-79
2020/12/19 07:43:06;;;;;;;102.28;53.60;;;;;;;7.03;66.94;94926.22;4993412;28;20047;-79
2020/12/19 07:45:33;;;;;;;105.78;55.70;;;;;;;6.99;66.86;94915.34;4976239;28;20038;-79
2020/12/19 07:47:59;;;;;;;106.65;55.25;;;;;;;7.02;67.50;94925.41;4983669;28;20042;-79
2020/12/19 07:50:26;;;;;;;111.03;56.65;;;;;;;7.00;67.15;94922.22;4983377;28;20030;-79
2020/12/19 07:53:01;;;;;;;116.22;56.88;;;;;;;7.08;66.92;94926.28;4986894;28;20463;-80
2020/12/19 07:55:27;;;;;;;109.07;56.00;;;;;;;7.03;66.79;94921.75;4997327;28;20038;-79
2020/12/19 07:57:54;;;;;;;104.32;55.25;;;;;;;7.08;66.88;94923.66;4983127;28;20115;-80
2020/12/19 08:00:21;;;;;;;101.13;53.60;;;;;;;7.09;67.12;94926.03;4983763;28;20038;-79
2020/12/19 08:02:46;;;;;;;95.72;51.67;;;;;;;7.08;67.38;94921.84;4981463;28;20049;-79
2020/12/19 08:05:12;;;;;;;100.38;51.03;;;;;;;7.16;67.06;94931.13;4982818;28;20026;-79
2020/12/19 08:07:38;;;;;;;101.07;53.50;;;;;;;7.18;66.60;94927.25;4967154;28;20210;-80
2020/12/19 08:10:05;;;;;;;98.53;53.95;;;;;;;7.20;66.70;94927.78;4962209;28;20437;-79
2020/12/19 08:12:32;;;;;;;111.68;56.28;;;;;;;7.22;66.51;94925.72;4990728;28;20582;-79
2020/12/19 08:15:00;;;;;;;103.75;55.38;;;;;;;7.25;66.20;94924.44;4982874;28;20884;-79
2020/12/19 08:17:27;;;;;;;105.07;53.80;;;;;;;7.28;66.07;94924.75;4987598;28;20069;-79
2020/12/19 08:19:56;;;;;;;111.50;56.72;;;;;;;7.32;65.72;94927.72;4989103;28;20034;-79
2020/12/19 08:22:22;;;;;;;102.00;51.20;;;;;;;7.38;66.20;94940.69;4986055;28;20050;-79
2020/12/19 08:24:49;;;;;;;99.57;52.33;;;;;;;7.35;66.33;94938.53;4973383;28;20043;-79
2020/12/19 08:27:40;;;;;;;99.20;54.78;;;;;;;7.31;66.41;94934.81;4977052;28;20042;-79
2020/12/19 08:30:08;;;;;;;118.03;57.92;;;;;;;7.32;66.07;94938.22;4986589;28;20093;-79
2020/12/19 08:32:34;;;;;;;107.93;53.90;;;;;;;7.31;66.15;94934.00;4985914;28;20045;-79
2020/12/19 08:35:00;;;;;;;108.32;54.30;;;;;;;7.40;66.22;94938.63;4989961;28;20069;-79
2020/12/19 08:37:26;;;;;;;109.43;56.60;;;;;;;7.30;66.57;94930.56;4985881;28;20120;-79
2020/12/19 08:40:20;;;;;;;117.05;56.50;;;;;;;7.44;66.28;94940.75;4970370;28;20070;-79
2020/12/19 08:42:49;;;;;;;104.47;52.97;;;;;;;7.42;66.07;94942.84;4977140;28;20058;-79
2020/12/19 08:45:26;;;;;;;108.38;55.38;;;;;;;7.39;66.36;94931.75;5004092;28;20054;-79
2020/12/19 08:48:00;;;;;;;115.82;57.70;;;;;;;7.46;66.41;94933.44;4988844;28;20041;-79
2020/12/19 08:50:46;;;;;;;116.47;58.28;;;;;;;7.42;66.60;94921.81;4998879;28;20055;-79
2020/12/19 08:53:23;;;;;;;112.40;56.65;;;;;;;7.52;66.82;94929.84;4965264;28;20476;-79
2020/12/19 08:55:49;;;;;;;116.38;58.08;;;;;;;7.54;66.70;94927.75;4982579;28;20100;-79
2020/12/19 08:58:27;;;;;;;116.57;56.03;;;;;;;7.56;66.71;94917.78;4969818;28;20170;-79
2020/12/19 09:00:55;;;;;;;115.05;60.05;;;;;;;7.63;66.52;94923.66;4965032;28;20051;-80
2020/12/19 09:03:26;;;;;;;112.60;56.83;;;;;;;7.61;66.51;94917.88;4975323;28;20039;-78
2020/12/19 09:06:07;;;;;;;126.22;63.03;;;;;;;7.62;66.27;94906.31;4985489;28;20046;-78
2020/12/19 09:08:42;;;;;;;123.93;59.95;;;;;;;7.69;66.44;94915.63;4985302;28;20057;-78
2020/12/19 09:11:21;;;;;;;120.32;59.70;;;;;;;7.65;65.76;94908.44;5003821;28;20034;-78
2020/12/19 09:13:47;;;;;;;117.75;59.17;;;;;;;7.75;65.53;94908.59;4984912;28;20034;-78
2020/12/19 09:16:12;;;;;;;138.52;66.50;;;;;;;7.82;65.86;94899.47;4984707;28;20046;-78
2020/12/19 09:18:39;;;;;;;121.43;61.25;;;;;;;7.85;66.35;94887.66;4987413;28;20073;-78
2020/12/19 09:21:07;;;;;;;121.03;61.05;;;;;;;7.88;67.11;94892.44;4978869;28;20490;-78
2020/12/19 09:23:33;;;;;;;109.60;56.75;;;;;;;7.93;66.80;94889.84;4965100;28;20097;-78
2020/12/19 09:26:01;;;;;;;128.63;62.20;;;;;;;7.92;66.18;94898.78;4969026;28;20043;-78
2020/12/19 09:28:28;;;;;;;130.70;62.95;;;;;;;7.94;65.60;94886.19;4999175;28;20042;-78
2020/12/19 09:30:55;;;;;;;125.97;62.17;;;;;;;7.99;65.21;94891.50;4971254;28;20101;-78
2020/12/19 09:33:21;;;;;;;120.57;63.25;;;;;;;7.99;65.48;94883.63;4974179;28;20442;-78
2020/12/19 09:35:48;;;;;;;129.38;62.65;;;;;;;8.11;65.74;94891.41;4981510;28;20031;-78
2020/12/19 09:38:14;;;;;;;135.50;64.65;;;;;;;8.21;65.77;94880.94;4966563;28;20039;-78
2020/12/19 09:40:40;;;;;;;132.30;60.20;;;;;;;8.15;65.57;94884.59;4987268;28;20027;-78
2020/12/19 09:43:06;;;;;;;118.05;59.28;;;;;;;8.02;65.21;94874.41;4984543;28;20045;-78
2020/12/19 09:45:33;;;;;;;127.90;61.55;;;;;;;8.06;65.40;94872.91;4986782;28;20046;-78
2020/12/19 09:47:59;;;;;;;124.68;59.40;;;;;;;8.16;64.80;94879.06;4984802;28;20053;-78
2020/12/19 09:50:26;;;;;;;115.55;59.33;;;;;;;8.14;64.73;94880.38;4985970;28;20023;-78
2020/12/19 09:52:51;;;;;;;123.70;61.90;;;;;;;8.14;65.30;94875.91;4987150;28;20072;-78
2020/12/19 09:55:18;;;;;;;124.00;62.67;;;;;;;8.14;65.50;94877.72;4997734;28;20116;-78
2020/12/19 09:57:43;;;;;;;124.35;61.53;;;;;;;8.12;65.22;94875.34;4975657;28;20193;-78
2020/12/19 10:00:11;;;;;;;124.65;63.70;;;;;;;8.13;65.42;94871.66;4985242;28;20169;-78
2020/12/19 10:02:36;;;;;;;128.75;63.40;;;;;;;8.12;65.57;94870.06;4984394;28;20121;-78
2020/12/19 10:05:02;;;;;;;131.02;66.05;;;;;;;8.19;65.48;94862.00;4987831;28;20030;-78
2020/12/19 10:07:28;;;;;;;117.97;60.15;;;;;;;8.06;65.36;94859.75;4995660;28;20117;-78
2020/12/19 10:09:53;;;;;;;115.80;59.35;;;;;;;8.06;65.27;94846.59;4979158;28;20496;-78
2020/12/19 10:12:19;;;;;;;119.65;60.15;;;;;;;8.17;65.47;94856.97;4985893;28;20049;-78
2020/12/19 10:14:44;;;;;;;124.70;62.00;;;;;;;8.19;65.37;94857.53;4979259;28;20046;-78
2020/12/19 10:17:10;;;;;;;129.25;62.83;;;;;;;8.25;64.76;94851.28;4982598;28;20066;-78
2020/12/19 10:19:36;;;;;;;137.75;66.93;;;;;;;8.33;64.90;94862.41;4984916;28;20038;-78
2020/12/19 10:22:02;;;;;;;150.98;72.75;;;;;;;8.34;65.03;94837.69;4976214;28;20622;-78
2020/12/19 10:24:28;;;;;;;152.43;72.20;;;;;;;8.39;65.26;94848.25;4964761;28;20051;-78
2020/12/19 10:26:54;;;;;;;151.25;71.32;;;;;;;8.33;65.14;94851.88;4965164;28;20039;-78
2020/12/19 10:29:19;;;;;;;151.02;70.35;;;;;;;8.30;64.85;94842.66;4964542;28;20037;-78
2020/12/19 10:31:45;;;;;;;154.60;74.57;;;;;;;8.28;65.46;94844.69;4968265;28;20106;-78
2020/12/19 10:34:11;;;;;;;161.10;73.55;;;;;;;8.33;65.41;94843.97;4979077;28;20886;-78
2020/12/19 10:36:36;;;;;;;169.70;74.53;;;;;;;8.20;65.00;94826.72;4986611;28;20034;-77
2020/12/19 10:39:03;;;;;;;151.05;69.43;;;;;;;8.15;65.30;94824.84;4986396;28;20046;-78
2020/12/19 10:41:28;;;;;;;148.38;70.25;;;;;;;8.17;65.20;94832.47;4983376;28;20060;-78
2020/12/19 10:43:54;;;;;;;154.77;74.53;;;;;;;8.17;65.28;94830.63;4988280;28;20046;-78
2020/12/19 10:46:21;;;;;;;163.38;76.53;;;;;;;8.17;65.32;94843.78;4999548;28;20149;-78
2020/12/19 10:48:46;;;;;;;161.23;75.55;;;;;;;8.17;65.28;94837.72;4982218;28;20132;-78
2020/12/19 10:51:12;;;;;;;156.25;74.47;;;;;;;8.27;65.45;94822.84;4984543;28;20483;-78
2020/12/19 10:53:37;;;;;;;155.90;73.28;;;;;;;8.28;65.12;94824.44;4983486;28;20477;-78
2020/12/19 10:56:03;;;;;;;170.35;77.38;;;;;;;8.30;64.96;94826.84;4987779;28;20461;-78
2020/12/19 10:58:28;;;;;;;159.57;76.43;;;;;;;8.21;65.09;94823.81;4963961;28;20126;-78
2020/12/19 11:00:54;;;;;;;165.10;79.03;;;;;;;8.26;64.69;94818.59;4979260;28;20043;-78
2020/12/19 11:03:19;;;;;;;153.73;73.10;;;;;;;8.27;65.33;94822.03;4976517;28;20447;-78
2020/12/19 11:05:44;;;;;;;157.27;75.10;;;;;;;8.28;65.36;94811.25;4984590;28;20042;-78
2020/12/19 11:08:10;;;;;;;157.30;74.80;;;;;;;8.20;65.29;94803.81;4983563;28;20121;-78
2020/12/19 11:10:35;;;;;;;163.88;77.88;;;;;;;8.28;65.36;94806.00;4963187;28;20038;-78
2020/12/19 11:13:03;;;;;;;159.60;74.05;;;;;;;8.21;65.34;94789.59;4978837;28;20435;-78
2020/12/19 11:15:32;;;;;;;166.13;77.07;;;;;;;8.21;65.67;94792.22;4982420;28;20407;-78
2020/12/19 11:17:58;;;;;;;163.38;79.40;;;;;;;8.36;65.34;94803.97;4981716;28;20042;-78
2020/12/19 11:20:24;;;;;;;168.75;77.78;;;;;;;8.44;65.40;94800.91;4984495;28;20019;-78
2020/12/19 11:22:49;;;;;;;164.13;79.13;;;;;;;8.46;65.30;94798.78;4985639;28;20014;-78